Time;durP1;ratioP1;P1;durP2;ratioP2;P2;SDS_P1;SDS_P2;PMS_P1;PMS_P2;Temp;Humidity;BMP_temperature;BMP_pressure;BME280_temperature;BME280_humidity;BME280_pressure;Samples;Min_cycle;Max_cycle;Signal;HPM_P1;HPM_P2
2023/07/23 00:00:26;;;;;;;11.70;5.57;;;14.50;99.90;;;;;;5041960;28;20381;-69
2023/07/23 00:02:52;;;;;;;9.32;5.47;;;14.50;99.90;;;;;;5044645;28;20402;-68
2023/07/23 00:05:17;;;;;;;11.32;5.80;;;14.50;99.90;;;;;;5044700;28;20112;-71
2023/07/23 00:07:43;;;;;;;10.82;5.30;;;14.60;99.90;;;;;;5041903;28;20561;-70
2023/07/23 00:10:09;;;;;;;12.20;6.43;;;14.50;99.90;;;;;;5041633;28;20527;-70
2023/07/23 00:12:36;;;;;;;10.32;5.22;;;14.50;99.90;;;;;;5041792;28;20117;-71
2023/07/23 00:15:03;;;;;;;12.57;5.28;;;14.50;99.90;;;;;;5052793;28;20087;-68
2023/07/23 00:17:28;;;;;;;8.77;5.57;;;14.50;99.90;;;;;;5047247;28;20076;-69
2023/07/23 00:19:54;;;;;;;9.88;6.03;;;14.50;99.90;;;;;;5042834;28;20139;-69
2023/07/23 00:22:20;;;;;;;11.07;6.00;;;14.50;99.90;;;;;;5044403;28;20036;-68
2023/07/23 00:24:45;;;;;;;10.50;5.32;;;14.40;99.90;;;;;;5044146;28;20037;-67
2023/07/23 00:27:13;;;;;;;12.75;6.03;;;14.50;99.90;;;;;;5041392;28;20366;-69
2023/07/23 00:29:40;;;;;;;10.60;5.70;;;14.50;99.90;;;;;;5045734;28;20053;-69
2023/07/23 00:32:06;;;;;;;14.77;6.40;;;14.40;99.90;;;;;;5049249;28;20056;-68
2023/07/23 00:34:32;;;;;;;10.75;6.05;;;14.40;99.90;;;;;;5040491;28;20037;-68
2023/07/23 00:36:57;;;;;;;11.30;6.63;;;14.40;99.90;;;;;;5040916;28;20128;-68
2023/07/23 00:39:23;;;;;;;12.13;6.57;;;14.40;99.90;;;;;;5043696;28;20187;-67
2023/07/23 00:41:49;;;;;;;9.32;5.95;;;14.40;99.90;;;;;;5044022;28;20047;-68
2023/07/23 00:44:16;;;;;;;11.57;6.57;;;14.30;99.90;;;;;;5043643;28;20488;-68
2023/07/23 00:46:42;;;;;;;11.57;6.78;;;14.40;99.90;;;;;;5043495;28;20076;-68
2023/07/23 00:49:08;;;;;;;13.10;6.95;;;14.30;99.90;;;;;;5043388;28;20057;-69
2023/07/23 00:51:35;;;;;;;14.95;6.70;;;14.30;99.90;;;;;;5040722;28;20053;-68
2023/07/23 00:54:01;;;;;;;13.43;6.63;;;14.30;99.90;;;;;;5040450;28;20064;-66
2023/07/23 00:56:28;;;;;;;13.10;6.93;;;14.30;99.90;;;;;;5041628;28;20045;-67
2023/07/23 00:58:53;;;;;;;11.43;7.03;;;14.30;99.90;;;;;;5051758;28;20053;-67
2023/07/23 01:01:19;;;;;;;10.98;6.55;;;14.30;99.90;;;;;;5043522;28;20047;-67
2023/07/23 01:03:45;;;;;;;14.52;7.00;;;14.30;99.90;;;;;;5042989;28;20504;-68
2023/07/23 01:06:12;;;;;;;11.18;6.68;;;14.30;99.90;;;;;;5051370;28;20041;-67
2023/07/23 01:08:40;;;;;;;15.75;6.90;;;14.30;99.90;;;;;;5042160;28;20084;-68
2023/07/23 01:11:06;;;;;;;12.63;6.55;;;14.30;99.90;;;;;;5039899;28;20075;-68
2023/07/23 01:13:32;;;;;;;10.38;6.65;;;14.30;99.90;;;;;;5040241;28;20099;-67
2023/07/23 01:15:59;;;;;;;11.80;7.05;;;14.30;99.90;;;;;;5042323;28;20164;-68
2023/07/23 01:18:26;;;;;;;16.70;7.18;;;14.30;99.90;;;;;;5043003;28;20041;-67
2023/07/23 01:20:52;;;;;;;13.95;7.10;;;14.30;99.90;;;;;;5041307;28;20045;-67
2023/07/23 01:23:18;;;;;;;11.38;6.57;;;14.30;99.90;;;;;;5039850;28;20057;-68
2023/07/23 01:25:43;;;;;;;12.05;6.03;;;14.30;99.90;;;;;;5045912;28;20040;-67
2023/07/23 01:28:09;;;;;;;9.90;5.85;;;14.30;99.90;;;;;;5042800;28;20396;-68
2023/07/23 01:30:35;;;;;;;10.50;6.38;;;14.30;99.90;;;;;;5041327;28;20091;-67
2023/07/23 01:33:00;;;;;;;9.32;6.00;;;14.30;99.90;;;;;;5042692;28;20415;-68
2023/07/23 01:35:26;;;;;;;11.70;6.70;;;14.30;99.90;;;;;;5046949;28;20168;-68
2023/07/23 01:37:52;;;;;;;13.68;6.30;;;14.30;99.90;;;;;;5039622;28;20484;-67
2023/07/23 01:40:18;;;;;;;9.20;6.00;;;14.30;99.90;;;;;;5041572;28;20188;-67
2023/07/23 01:42:44;;;;;;;11.43;6.07;;;14.40;99.90;;;;;;5042651;28;20043;-67
2023/07/23 01:45:10;;;;;;;11.82;6.10;;;14.30;99.90;;;;;;5042238;28;20086;-67
2023/07/23 01:47:36;;;;;;;13.57;5.78;;;14.40;99.90;;;;;;5039270;28;20055;-67
2023/07/23 01:50:02;;;;;;;10.20;5.75;;;14.40;99.90;;;;;;5039418;28;20045;-68
2023/07/23 01:52:29;;;;;;;11.43;5.78;;;14.30;99.90;;;;;;5041025;28;20049;-67
2023/07/23 01:54:54;;;;;;;12.18;6.20;;;14.30;99.90;;;;;;5042384;28;20044;-68
2023/07/23 01:57:20;;;;;;;10.32;5.57;;;14.30;99.90;;;;;;5044564;28;20041;-69
2023/07/23 01:59:47;;;;;;;9.82;5.95;;;14.30;99.90;;;;;;5047134;28;20120;-67
2023/07/23 02:02:13;;;;;;;9.00;5.45;;;14.40;99.90;;;;;;5048069;28;20151;-67
2023/07/23 02:04:38;;;;;;;10.93;5.43;;;14.30;99.90;;;;;;5042470;28;20120;-67
2023/07/23 02:07:04;;;;;;;10.48;5.88;;;14.40;99.90;;;;;;5042124;28;20041;-68
2023/07/23 02:09:30;;;;;;;9.05;5.82;;;14.40;99.90;;;;;;5041805;28;20554;-67
2023/07/23 02:11:55;;;;;;;11.73;5.95;;;14.40;99.90;;;;;;5049345;28;20659;-68
2023/07/23 02:14:21;;;;;;;11.30;5.72;;;14.40;99.90;;;;;;5050281;28;20041;-68
2023/07/23 02:16:46;;;;;;;10.20;5.50;;;14.40;99.90;;;;;;5048836;28;20076;-67
2023/07/23 02:19:13;;;;;;;8.65;5.30;;;14.30;99.90;;;;;;5048819;28;20037;-69
2023/07/23 02:21:39;;;;;;;10.88;5.72;;;14.40;99.90;;;;;;5041594;28;20033;-66
2023/07/23 02:24:05;;;;;;;10.40;5.75;;;14.30;99.90;;;;;;5039054;28;20044;-69
2023/07/23 02:26:31;;;;;;;9.73;5.97;;;14.40;99.90;;;;;;5046634;28;20041;-67
2023/07/23 02:28:57;;;;;;;10.05;5.50;;;14.40;99.90;;;;;;5048945;28;20132;-67
2023/07/23 02:31:23;;;;;;;9.43;5.40;;;14.40;99.90;;;;;;5041576;28;20115;-69
2023/07/23 02:33:48;;;;;;;13.00;5.65;;;14.40;99.90;;;;;;5042165;28;20041;-68
2023/07/23 02:36:14;;;;;;;9.82;6.30;;;14.30;99.90;;;;;;5039732;28;20128;-68
2023/07/23 02:38:39;;;;;;;10.55;5.82;;;14.40;99.90;;;;;;5038605;28;20539;-70
2023/07/23 02:41:07;;;;;;;10.63;5.68;;;14.40;99.90;;;;;;5046470;28;20068;-67
2023/07/23 02:43:32;;;;;;;13.88;6.38;;;14.40;99.90;;;;;;5045439;28;20045;-68
2023/07/23 02:45:58;;;;;;;8.38;5.47;;;14.40;99.90;;;;;;5049616;28;20051;-67
2023/07/23 02:48:24;;;;;;;10.38;5.63;;;14.40;99.90;;;;;;5041430;28;20500;-69
2023/07/23 02:50:52;;;;;;;10.23;5.53;;;14.40;99.90;;;;;;5041568;28;20045;-67
2023/07/23 02:53:18;;;;;;;8.10;5.25;;;14.40;99.90;;;;;;5040474;28;20484;-68
2023/07/23 02:55:44;;;;;;;14.05;5.82;;;14.40;99.90;;;;;;5039739;28;20037;-67
2023/07/23 02:58:10;;;;;;;13.00;6.05;;;14.40;99.90;;;;;;5042827;28;20048;-68
2023/07/23 03:00:39;;;;;;;8.85;5.38;;;14.40;99.90;;;;;;5040631;28;20046;-67
2023/07/23 03:03:07;;;;;;;9.23;5.80;;;14.40;99.90;;;;;;5041595;28;20098;-67
2023/07/23 03:05:34;;;;;;;9.90;5.80;;;14.30;99.90;;;;;;5040750;28;20044;-68
2023/07/23 03:07:59;;;;;;;9.52;5.72;;;14.40;99.90;;;;;;5038241;28;20053;-71
2023/07/23 03:10:25;;;;;;;10.18;5.93;;;14.30;99.90;;;;;;5041664;28;20045;-66
2023/07/23 03:12:51;;;;;;;11.55;5.90;;;14.30;99.90;;;;;;5049659;28;20052;-67
2023/07/23 03:15:17;;;;;;;11.15;5.75;;;14.40;99.90;;;;;;5042134;28;20041;-67
2023/07/23 03:17:42;;;;;;;8.23;5.65;;;14.40;99.90;;;;;;5051166;28;20037;-68
2023/07/23 03:20:10;;;;;;;10.73;6.15;;;14.40;99.90;;;;;;5045241;28;20419;-68
2023/07/23 03:22:38;;;;;;;11.18;5.90;;;14.30;99.90;;;;;;5049889;28;20059;-68
2023/07/23 03:25:04;;;;;;;10.43;5.45;;;14.30;99.90;;;;;;5044710;28;20046;-67
2023/07/23 03:27:29;;;;;;;10.45;5.68;;;14.30;99.90;;;;;;5044950;28;20033;-67
2023/07/23 03:29:55;;;;;;;11.38;5.63;;;14.40;99.90;;;;;;5044350;28;20065;-67
2023/07/23 03:32:21;;;;;;;10.73;6.50;;;14.40;99.90;;;;;;5041724;28;20041;-68
2023/07/23 03:34:46;;;;;;;9.68;5.55;;;14.40;99.90;;;;;;5041793;28;20065;-68
2023/07/23 03:37:12;;;;;;;12.85;6.25;;;14.40;99.90;;;;;;5051628;28;20408;-67
2023/07/23 03:39:38;;;;;;;8.63;6.00;;;14.40;99.90;;;;;;5044429;28;20045;-68
2023/07/23 03:42:04;;;;;;;10.65;6.43;;;14.40;99.90;;;;;;5045344;28;20080;-67
2023/07/23 03:44:29;;;;;;;11.07;6.05;;;14.40;99.90;;;;;;5050009;28;20045;-68
2023/07/23 03:47:19;;;;;;;15.63;7.30;;;14.40;99.90;;;;;;5040217;28;20065;-67
2023/07/23 03:49:46;;;;;;;13.68;7.35;;;14.40;99.90;;;;;;5046254;28;20112;-67
2023/07/23 03:52:12;;;;;;;13.63;6.45;;;14.40;99.90;;;;;;5044719;28;20037;-67
2023/07/23 03:54:38;;;;;;;12.02;6.28;;;14.40;99.90;;;;;;5041104;28;20559;-67
2023/07/23 03:57:04;;;;;;;12.90;6.43;;;14.30;99.90;;;;;;5041575;28;20056;-66
2023/07/23 03:59:37;;;;;;;10.10;6.28;;;14.30;99.90;;;;;;5050974;28;20422;-68
2023/07/23 04:02:03;;;;;;;11.07;7.30;;;14.30;99.90;;;;;;5044844;28;20048;-67
2023/07/23 04:04:29;;;;;;;14.27;7.05;;;14.30;99.90;;;;;;5043135;28;20127;-68
2023/07/23 04:06:55;;;;;;;10.13;6.43;;;14.40;99.90;;;;;;5048850;28;20124;-67
2023/07/23 04:09:21;;;;;;;11.73;6.75;;;14.40;99.90;;;;;;5041306;28;20175;-67
2023/07/23 04:11:47;;;;;;;14.75;6.32;;;14.50;99.90;;;;;;5051250;28;20048;-67
2023/07/23 04:14:12;;;;;;;12.95;6.10;;;14.40;99.90;;;;;;5044555;28;20049;-67
2023/07/23 04:16:38;;;;;;;12.52;6.82;;;14.40;99.90;;;;;;5043922;28;20047;-68
2023/07/23 04:19:04;;;;;;;10.93;6.32;;;14.40;99.90;;;;;;5046099;28;20053;-68
2023/07/23 04:21:30;;;;;;;10.75;6.40;;;14.40;99.90;;;;;;5044016;28;20391;-67
2023/07/23 04:23:57;;;;;;;9.68;6.18;;;14.40;99.90;;;;;;5042534;28;20056;-67
2023/07/23 04:26:25;;;;;;;12.05;6.20;;;14.40;99.90;;;;;;5040697;28;20077;-67
2023/07/23 04:28:51;;;;;;;10.95;6.65;;;14.40;99.90;;;;;;5048958;28;20098;-68
2023/07/23 04:31:17;;;;;;;11.20;6.57;;;14.40;99.90;;;;;;5048416;28;20079;-67
2023/07/23 04:33:43;;;;;;;13.75;6.80;;;14.40;99.90;;;;;;5040981;28;20049;-68
2023/07/23 04:36:10;;;;;;;13.00;6.80;;;14.40;99.90;;;;;;5042292;28;20052;-67
2023/07/23 04:38:36;;;;;;;14.75;7.30;;;14.40;99.90;;;;;;5047553;28;20068;-67
2023/07/23 04:41:02;;;;;;;10.85;6.60;;;14.40;99.90;;;;;;5050039;28;20060;-68
2023/07/23 04:43:28;;;;;;;9.65;6.13;;;14.40;99.90;;;;;;5044775;28;20041;-68
2023/07/23 04:45:54;;;;;;;9.90;6.43;;;14.40;99.90;;;;;;5046589;28;20044;-69
2023/07/23 04:48:20;;;;;;;12.68;6.45;;;14.40;99.90;;;;;;5050438;28;20044;-67
2023/07/23 04:50:53;;;;;;;10.98;6.55;;;14.40;99.90;;;;;;5040581;28;20064;-67
2023/07/23 04:53:20;;;;;;;11.70;6.00;;;14.40;99.90;;;;;;5040859;28;20048;-69
2023/07/23 04:55:46;;;;;;;12.50;6.25;;;14.50;99.90;;;;;;5043137;28;20068;-68
2023/07/23 04:58:11;;;;;;;11.15;6.40;;;14.40;99.90;;;;;;5050735;28;20053;-67
2023/07/23 05:00:37;;;;;;;8.73;5.90;;;14.50;99.90;;;;;;5041491;28;20072;-67
2023/07/23 05:03:02;;;;;;;11.15;6.03;;;14.50;99.90;;;;;;5040568;28;20044;-67
2023/07/23 05:05:28;;;;;;;9.85;6.10;;;14.50;99.90;;;;;;5048505;28;20480;-70
2023/07/23 05:07:54;;;;;;;10.85;6.30;;;14.50;99.90;;;;;;5040014;28;20168;-67
2023/07/23 05:10:19;;;;;;;12.13;6.25;;;14.50;99.90;;;;;;5046115;28;20037;-69
2023/07/23 05:12:45;;;;;;;10.00;6.18;;;14.50;99.90;;;;;;5048661;28;20140;-68
2023/07/23 05:15:14;;;;;;;10.60;6.38;;;14.50;99.90;;;;;;5033322;28;20400;-67
2023/07/23 05:17:41;;;;;;;11.30;6.18;;;14.50;99.90;;;;;;5042733;28;20507;-68
2023/07/23 05:20:08;;;;;;;15.48;6.88;;;14.50;99.90;;;;;;5042895;28;20421;-68
2023/07/23 05:22:39;;;;;;;11.65;6.70;;;14.50;99.90;;;;;;5043192;28;20055;-70
2023/07/23 05:25:06;;;;;;;12.38;6.85;;;14.50;99.90;;;;;;5040260;28;20068;-68
2023/07/23 05:27:32;;;;;;;14.88;8.30;;;14.50;99.90;;;;;;5045598;28;20453;-69
2023/07/23 05:29:58;;;;;;;15.13;7.55;;;14.50;99.90;;;;;;5042539;28;20144;-69
2023/07/23 05:32:23;;;;;;;11.82;8.15;;;14.50;99.90;;;;;;5042809;28;20048;-68
2023/07/23 05:34:49;;;;;;;11.27;7.45;;;14.60;99.90;;;;;;5042042;28;20156;-67
2023/07/23 05:37:15;;;;;;;14.90;7.70;;;14.60;99.90;;;;;;5042254;28;20053;-68
2023/07/23 05:39:40;;;;;;;13.43;8.23;;;14.60;99.90;;;;;;5042499;28;20550;-67
2023/07/23 05:42:06;;;;;;;10.98;8.00;;;14.60;99.90;;;;;;5050430;28;20052;-67
2023/07/23 05:44:34;;;;;;;12.85;8.55;;;14.60;99.90;;;;;;5050662;28;20029;-68
2023/07/23 05:47:00;;;;;;;15.00;8.15;;;14.60;99.90;;;;;;5042553;28;20094;-68
2023/07/23 05:49:25;;;;;;;14.68;7.80;;;14.60;99.90;;;;;;5040242;28;20049;-68
2023/07/23 05:51:52;;;;;;;12.05;7.88;;;14.60;99.90;;;;;;5050455;28;20062;-68
2023/07/23 05:54:18;;;;;;;15.38;7.68;;;14.70;99.90;;;;;;5041850;28;20055;-69
2023/07/23 05:56:44;;;;;;;13.18;8.32;;;14.80;99.90;;;;;;5039008;28;20044;-67
2023/07/23 05:59:09;;;;;;;11.07;7.68;;;14.70;99.90;;;;;;5039147;28;20049;-68
2023/07/23 06:01:35;;;;;;;16.35;8.52;;;14.80;99.90;;;;;;5041268;28;20428;-69
2023/07/23 06:04:01;;;;;;;15.32;6.85;;;14.80;99.90;;;;;;5042596;28;20119;-68
2023/07/23 06:06:27;;;;;;;13.73;7.68;;;14.80;99.90;;;;;;5040822;28;20045;-67
2023/07/23 06:08:53;;;;;;;11.50;7.65;;;14.70;99.90;;;;;;5046964;28;20186;-69
2023/07/23 06:11:18;;;;;;;10.93;7.55;;;14.80;99.90;;;;;;5037423;28;20528;-68
2023/07/23 06:13:44;;;;;;;14.35;7.25;;;15.00;99.90;;;;;;5048417;28;20037;-69
2023/07/23 06:16:10;;;;;;;12.65;7.28;;;14.80;99.90;;;;;;5040753;28;20495;-68
2023/07/23 06:18:35;;;;;;;14.10;7.85;;;14.80;99.90;;;;;;5041113;28;20044;-68
2023/07/23 06:21:02;;;;;;;11.32;7.35;;;14.90;99.90;;;;;;5042656;28;20037;-68
2023/07/23 06:23:28;;;;;;;12.73;7.53;;;15.00;99.90;;;;;;5043911;28;20060;-68
2023/07/23 06:25:54;;;;;;;12.43;7.80;;;15.00;99.90;;;;;;5038500;28;20049;-70
2023/07/23 06:28:20;;;;;;;11.85;7.65;;;15.00;99.90;;;;;;5045379;28;20045;-68
2023/07/23 06:30:46;;;;;;;14.15;7.97;;;15.00;99.90;;;;;;5038414;28;20133;-69
2023/07/23 06:33:11;;;;;;;13.45;8.10;;;15.00;99.90;;;;;;5047408;28;21091;-67
2023/07/23 06:35:41;;;;;;;11.75;7.40;;;15.10;99.90;;;;;;5050135;28;20468;-67
2023/07/23 06:38:06;;;;;;;15.15;8.70;;;15.10;99.90;;;;;;5040447;28;20135;-69
2023/07/23 06:40:32;;;;;;;11.18;7.82;;;15.00;99.90;;;;;;5041710;28;20033;-68
2023/07/23 06:42:58;;;;;;;12.23;8.20;;;15.20;99.90;;;;;;5041519;28;20041;-68
2023/07/23 06:45:24;;;;;;;14.40;8.50;;;15.10;99.90;;;;;;5041990;28;20049;-67
2023/07/23 06:47:49;;;;;;;15.30;8.55;;;15.20;99.90;;;;;;5041598;28;20440;-68
2023/07/23 06:50:17;;;;;;;18.65;8.40;;;15.20;99.90;;;;;;5041562;28;20488;-68
2023/07/23 06:52:43;;;;;;;13.65;8.38;;;15.30;99.90;;;;;;5045385;28;20034;-68
2023/07/23 06:55:09;;;;;;;12.38;8.70;;;15.40;99.90;;;;;;5037158;28;20056;-68
2023/07/23 06:57:35;;;;;;;12.65;8.30;;;15.30;99.90;;;;;;5040732;28;20053;-68
2023/07/23 07:00:01;;;;;;;20.15;8.98;;;15.40;99.90;;;;;;5041630;28;20108;-68
2023/07/23 07:02:26;;;;;;;12.68;8.55;;;15.40;99.90;;;;;;5049145;28;20498;-68
2023/07/23 07:04:52;;;;;;;14.77;8.30;;;15.40;99.90;;;;;;5041546;28;20532;-68
2023/07/23 07:07:18;;;;;;;13.70;8.05;;;15.30;99.90;;;;;;5041217;28;20132;-67
2023/07/23 07:09:43;;;;;;;13.25;8.77;;;15.40;99.90;;;;;;5040951;28;20049;-70
2023/07/23 07:12:09;;;;;;;12.52;8.50;;;15.40;99.90;;;;;;5039956;28;20045;-68
2023/07/23 07:14:34;;;;;;;14.18;8.10;;;15.40;99.90;;;;;;5041480;28;20044;-67
2023/07/23 07:17:00;;;;;;;15.80;8.85;;;15.40;99.90;;;;;;5036899;28;20041;-68
2023/07/23 07:19:25;;;;;;;15.35;9.00;;;15.50;99.90;;;;;;5044232;28;20524;-67
2023/07/23 07:21:51;;;;;;;14.48;9.02;;;15.50;99.90;;;;;;5041215;28;20090;-70
2023/07/23 07:24:17;;;;;;;14.77;9.00;;;15.50;99.90;;;;;;5023349;28;20072;-68
2023/07/23 07:26:43;;;;;;;18.05;8.57;;;15.50;99.90;;;;;;5049818;28;20086;-68
2023/07/23 07:29:09;;;;;;;19.65;9.07;;;15.50;99.90;;;;;;5036978;28;20129;-70
2023/07/23 07:31:34;;;;;;;16.45;8.60;;;15.60;99.90;;;;;;5044447;28;20041;-67
2023/07/23 07:34:00;;;;;;;15.48;8.75;;;15.70;99.90;;;;;;5040891;28;20037;-68
2023/07/23 07:36:25;;;;;;;13.85;8.40;;;15.60;99.90;;;;;;5041327;28;20419;-68
2023/07/23 07:38:51;;;;;;;15.57;8.55;;;15.70;99.90;;;;;;5041011;28;20123;-68
2023/07/23 07:44:12;;;;;;;17.03;8.53;;;15.70;99.90;;;;;;5005849;28;20496;-68
2023/07/23 07:46:37;;;;;;;14.25;8.35;;;15.80;99.90;;;;;;5004796;28;20058;-67
2023/07/23 07:49:04;;;;;;;17.52;9.05;;;15.80;99.90;;;;;;4997836;28;20050;-68
2023/07/23 07:51:30;;;;;;;16.20;8.32;;;15.80;99.90;;;;;;5000775;28;20054;-68
2023/07/23 07:53:56;;;;;;;18.63;9.10;;;15.90;99.90;;;;;;4991950;28;20064;-68
2023/07/23 07:56:22;;;;;;;16.42;9.25;;;15.90;99.90;;;;;;5002520;28;20084;-68
2023/07/23 07:58:48;;;;;;;16.23;9.20;;;15.90;99.90;;;;;;5011338;28;20081;-67
2023/07/23 08:01:14;;;;;;;13.75;8.63;;;15.90;99.90;;;;;;5004624;28;20135;-67
2023/07/23 08:03:40;;;;;;;20.05;9.00;;;15.90;99.90;;;;;;5004171;28;20108;-67
2023/07/23 08:06:06;;;;;;;16.55;8.70;;;15.90;99.90;;;;;;5012799;28;20484;-67
2023/07/23 08:08:37;;;;;;;15.15;8.75;;;15.90;99.90;;;;;;5003693;28;20045;-68
2023/07/23 08:11:06;;;;;;;15.27;8.88;;;15.90;99.90;;;;;;5001172;28;20074;-68
2023/07/23 08:13:34;;;;;;;15.65;8.70;;;15.90;99.90;;;;;;5001138;28;20054;-69
2023/07/23 08:16:00;;;;;;;12.52;8.32;;;15.90;99.90;;;;;;5004191;28;20042;-67
2023/07/23 08:18:26;;;;;;;17.20;8.40;;;15.90;99.90;;;;;;5003981;28;20046;-67
2023/07/23 08:20:57;;;;;;;13.25;8.77;;;15.90;99.90;;;;;;5002167;28;20037;-67
2023/07/23 08:23:26;;;;;;;14.18;8.52;;;16.00;99.90;;;;;;5001252;28;20057;-68
2023/07/23 08:25:58;;;;;;;13.85;7.95;;;16.00;99.90;;;;;;4992364;28;20046;-67
2023/07/23 08:28:28;;;;;;;14.13;9.73;;;16.00;99.90;;;;;;5004553;28;20084;-69
2023/07/23 08:31:00;;;;;;;13.63;10.05;;;15.90;99.90;;;;;;5003470;28;20546;-67
2023/07/23 08:33:30;;;;;;;12.10;9.65;;;16.00;99.90;;;;;;5000958;28;20047;-67
2023/07/23 08:35:58;;;;;;;13.32;9.60;;;15.90;99.90;;;;;;5001614;28;20497;-68
2023/07/23 08:38:24;;;;;;;13.02;9.60;;;15.90;99.90;;;;;;5008485;28;20042;-69
2023/07/23 08:40:58;;;;;;;13.13;9.07;;;15.90;99.90;;;;;;5005203;28;20128;-69
2023/07/23 08:43:48;;;;;;;14.52;8.68;;;15.90;99.90;;;;;;5003405;28;20054;-72
2023/07/23 08:46:22;;;;;;;13.90;8.82;;;15.90;99.90;;;;;;5011738;28;20737;-68
2023/07/23 08:49:03;;;;;;;11.25;8.07;;;15.90;99.90;;;;;;5006446;28;20052;-69
2023/07/23 08:51:41;;;;;;;13.18;8.95;;;15.90;99.90;;;;;;5008940;28;20074;-70
2023/07/23 08:54:08;;;;;;;13.32;9.00;;;15.90;99.90;;;;;;4994451;28;20053;-69
2023/07/23 08:56:35;;;;;;;14.38;9.13;;;15.90;99.90;;;;;;5008910;28;20115;-70
2023/07/23 08:59:02;;;;;;;12.55;8.73;;;15.90;99.90;;;;;;5001649;28;20085;-71
2023/07/23 09:01:32;;;;;;;13.00;8.43;;;15.90;99.90;;;;;;4993388;28;20061;-67
2023/07/23 09:03:58;;;;;;;13.88;8.95;;;15.90;99.90;;;;;;5008518;28;20394;-69
2023/07/23 09:06:26;;;;;;;15.82;9.05;;;15.90;99.90;;;;;;5008170;28;20100;-70
2023/07/23 09:08:52;;;;;;;16.00;9.38;;;15.90;99.90;;;;;;5001966;28;20147;-69
2023/07/23 09:11:18;;;;;;;13.95;8.60;;;16.00;99.90;;;;;;5011169;28;20061;-67
2023/07/23 09:13:43;;;;;;;16.50;9.43;;;16.00;99.90;;;;;;5001466;28;20049;-69
2023/07/23 09:16:09;;;;;;;14.18;8.38;;;15.90;99.90;;;;;;4976845;28;20069;-69
2023/07/23 09:18:39;;;;;;;16.67;8.82;;;15.90;99.90;;;;;;5011404;28;20041;-69
2023/07/23 09:21:06;;;;;;;11.55;9.13;;;15.90;99.90;;;;;;5003439;28;20103;-70
2023/07/23 09:23:32;;;;;;;11.10;8.25;;;16.00;99.90;;;;;;5026438;28;20077;-67
2023/07/23 09:25:59;;;;;;;13.30;8.68;;;16.00;99.90;;;;;;5001149;28;20077;-69
2023/07/23 09:28:26;;;;;;;11.95;8.73;;;16.00;99.90;;;;;;4999801;28;20039;-69
2023/07/23 09:30:55;;;;;;;12.57;7.50;;;16.10;99.90;;;;;;5008253;28;20038;-69
2023/07/23 09:33:21;;;;;;;12.35;8.25;;;16.10;99.90;;;;;;5003152;28;20037;-69
2023/07/23 09:35:46;;;;;;;14.98;8.00;;;16.10;99.90;;;;;;5000788;28;20119;-68
2023/07/23 09:38:13;;;;;;;13.60;8.23;;;16.10;99.90;;;;;;5001676;28;20062;-69
2023/07/23 09:40:41;;;;;;;12.13;7.57;;;16.10;99.90;;;;;;5010349;28;20057;-71
2023/07/23 09:43:07;;;;;;;10.20;7.38;;;16.10;99.90;;;;;;5010863;28;20155;-69
2023/07/23 09:45:39;;;;;;;11.77;8.05;;;16.10;99.90;;;;;;4990265;28;20163;-70
2023/07/23 09:48:06;;;;;;;12.95;8.35;;;16.10;99.90;;;;;;4993495;28;20049;-68
2023/07/23 09:50:32;;;;;;;13.13;8.27;;;16.00;99.90;;;;;;5002515;28;20049;-69
2023/07/23 09:52:58;;;;;;;13.32;8.68;;;16.10;99.90;;;;;;5002395;28;20041;-69
2023/07/23 09:55:24;;;;;;;12.80;8.77;;;16.10;99.90;;;;;;5001071;28;20050;-66
2023/07/23 09:57:51;;;;;;;11.98;8.70;;;16.00;99.90;;;;;;5003950;28;20042;-67
2023/07/23 10:00:18;;;;;;;18.02;7.80;;;16.10;99.90;;;;;;5002959;28;20074;-68
2023/07/23 10:02:48;;;;;;;13.57;7.95;;;16.10;99.90;;;;;;5007445;28;20038;-69
2023/07/23 10:05:17;;;;;;;11.68;8.43;;;16.10;99.90;;;;;;4992798;28;20037;-69
2023/07/23 10:07:45;;;;;;;12.35;8.23;;;16.00;99.90;;;;;;5002350;28;20057;-69
2023/07/23 10:10:15;;;;;;;11.60;8.32;;;16.10;99.90;;;;;;5006395;28;20073;-69
2023/07/23 10:12:41;;;;;;;16.77;8.80;;;16.10;99.90;;;;;;5001956;28;20046;-69
2023/07/23 10:15:08;;;;;;;13.15;8.40;;;16.20;99.90;;;;;;5002151;28;20049;-69
2023/07/23 10:17:39;;;;;;;15.40;8.93;;;16.10;99.90;;;;;;5001959;28;20046;-68
2023/07/23 10:20:07;;;;;;;14.80;8.05;;;16.20;99.90;;;;;;5010061;28;20053;-69
2023/07/23 10:22:34;;;;;;;15.60;8.27;;;16.20;99.90;;;;;;4992608;28;20489;-70
2023/07/23 10:25:00;;;;;;;11.23;7.78;;;16.20;99.90;;;;;;4990299;28;20057;-68
2023/07/23 10:27:25;;;;;;;12.25;8.18;;;16.20;99.90;;;;;;4998516;28;20046;-69
2023/07/23 10:30:17;;;;;;;13.77;7.95;;;16.20;99.90;;;;;;4992098;28;20515;-69
2023/07/23 10:32:44;;;;;;;12.20;8.02;;;16.20;99.90;;;;;;5005915;28;20408;-68
2023/07/23 10:35:10;;;;;;;15.20;7.90;;;16.30;99.90;;;;;;4990385;28;20064;-70
2023/07/23 10:37:35;;;;;;;13.68;8.18;;;16.30;99.90;;;;;;5001667;28;20041;-69
2023/07/23 10:40:03;;;;;;;12.95;8.38;;;16.30;99.90;;;;;;4992215;28;20131;-68
2023/07/23 10:42:33;;;;;;;12.02;8.23;;;16.40;99.90;;;;;;5003522;28;20096;-69
2023/07/23 10:45:20;;;;;;;13.60;8.15;;;16.30;99.90;;;;;;5001737;28;20143;-69
2023/07/23 10:47:53;;;;;;;12.65;8.18;;;16.40;99.90;;;;;;5001462;28;20030;-68
2023/07/23 10:50:20;;;;;;;13.32;8.05;;;16.40;99.90;;;;;;5003474;28;20393;-69
2023/07/23 10:52:58;;;;;;;11.82;8.18;;;16.40;99.90;;;;;;4988771;28;20091;-68
2023/07/23 10:55:50;;;;;;;15.30;7.60;;;16.40;99.90;;;;;;4999957;28;20042;-68
2023/07/23 10:58:20;;;;;;;13.23;6.93;;;16.50;99.90;;;;;;5001362;28;20127;-69
2023/07/23 11:00:56;;;;;;;14.25;7.93;;;16.50;99.90;;;;;;4988795;28;20050;-69
2023/07/23 11:03:24;;;;;;;10.25;7.00;;;16.60;99.90;;;;;;4998821;28;20053;-68
2023/07/23 11:05:50;;;;;;;14.13;8.20;;;16.60;99.90;;;;;;5001528;28;20042;-69
2023/07/23 11:08:26;;;;;;;11.82;8.00;;;16.60;99.90;;;;;;4992018;28;20058;-68
2023/07/23 11:10:59;;;;;;;13.75;8.20;;;16.60;99.90;;;;;;5001684;28;20861;-69
2023/07/23 11:13:28;;;;;;;12.05;7.15;;;16.70;99.90;;;;;;5002160;28;20165;-67
2023/07/23 11:15:55;;;;;;;10.68;7.65;;;16.70;99.90;;;;;;5001039;28;20713;-68
2023/07/23 11:18:21;;;;;;;15.88;7.78;;;16.80;99.90;;;;;;5001308;28;20117;-69
2023/07/23 11:20:48;;;;;;;15.68;8.20;;;16.80;99.90;;;;;;4991937;28;20141;-68
2023/07/23 11:23:16;;;;;;;11.82;8.02;;;16.80;99.90;;;;;;4991855;28;20052;-69
2023/07/23 11:25:43;;;;;;;12.25;7.93;;;16.80;99.90;;;;;;5001558;28;20451;-69
2023/07/23 11:28:09;;;;;;;15.27;8.30;;;16.80;99.90;;;;;;4991492;28;20107;-68
2023/07/23 11:30:35;;;;;;;11.48;7.53;;;16.80;99.90;;;;;;5001284;28;20492;-68
2023/07/23 11:33:05;;;;;;;11.82;7.28;;;16.80;99.90;;;;;;4992635;28;20053;-69
2023/07/23 11:35:31;;;;;;;11.43;7.63;;;16.80;99.90;;;;;;5006869;28;20037;-70
2023/07/23 11:38:04;;;;;;;12.90;7.25;;;16.80;99.90;;;;;;4992244;28;20054;-68
2023/07/23 11:40:30;;;;;;;13.13;7.43;;;16.70;99.90;;;;;;5005263;28;20073;-71
2023/07/23 11:42:55;;;;;;;11.95;7.53;;;16.80;99.90;;;;;;5004460;28;20097;-69
2023/07/23 11:45:22;;;;;;;12.55;7.25;;;16.80;99.90;;;;;;4994688;28;20421;-69
2023/07/23 11:47:50;;;;;;;12.90;8.13;;;16.80;99.90;;;;;;5005968;28;20045;-70
2023/07/23 11:50:17;;;;;;;12.25;7.03;;;16.80;99.90;;;;;;5011810;28;20129;-70
2023/07/23 11:52:43;;;;;;;10.43;7.53;;;16.80;99.90;;;;;;5001838;28;20035;-69
2023/07/23 11:55:23;;;;;;;11.75;7.10;;;16.80;99.90;;;;;;5001943;28;20130;-69
2023/07/23 11:57:56;;;;;;;14.35;7.13;;;16.80;99.90;;;;;;4988699;28;20092;-69
2023/07/23 12:00:26;;;;;;;10.15;6.30;;;16.80;99.90;;;;;;5004146;28;20046;-69
2023/07/23 12:02:52;;;;;;;11.75;7.38;;;16.80;99.90;;;;;;5001567;28;20042;-71
2023/07/23 12:05:18;;;;;;;11.43;6.85;;;16.80;99.90;;;;;;5001183;28;20046;-70
2023/07/23 12:07:44;;;;;;;10.65;6.90;;;16.80;99.90;;;;;;5006891;28;20081;-69
2023/07/23 12:10:15;;;;;;;12.48;7.47;;;16.80;99.90;;;;;;5012273;28;20045;-69
2023/07/23 12:12:48;;;;;;;11.73;7.38;;;16.80;99.90;;;;;;5002756;28;20046;-71
2023/07/23 12:15:15;;;;;;;11.77;6.53;;;16.80;99.90;;;;;;4991541;28;20058;-69
2023/07/23 12:17:42;;;;;;;10.80;6.57;;;16.90;99.90;;;;;;4992337;28;20057;-70
2023/07/23 12:20:18;;;;;;;10.85;6.15;;;17.00;99.90;;;;;;5005215;28;20073;-71
2023/07/23 12:22:56;;;;;;;9.40;6.60;;;17.10;99.90;;;;;;5003847;28;20088;-68
2023/07/23 12:25:25;;;;;;;11.80;6.57;;;17.10;99.90;;;;;;4994189;28;20594;-69
2023/07/23 12:27:50;;;;;;;10.73;6.03;;;17.20;99.90;;;;;;5003173;28;20046;-68
2023/07/23 12:30:17;;;;;;;8.02;6.03;;;17.30;99.90;;;;;;4991235;28;20413;-69
2023/07/23 12:32:44;;;;;;;11.32;5.72;;;17.30;99.90;;;;;;4991541;28;20088;-70
2023/07/23 12:35:10;;;;;;;7.65;5.75;;;17.40;99.90;;;;;;5003567;28;20436;-69
2023/07/23 12:37:36;;;;;;;8.95;5.82;;;17.50;99.90;;;;;;5003882;28;20042;-69
2023/07/23 12:40:04;;;;;;;8.07;6.00;;;17.70;99.90;;;;;;5003107;28;20050;-69